createdAt,value
2019-06-10T00:02:21.265Z,6.60
2019-06-10T00:04:47.662Z,4.40
2019-06-10T00:07:14.343Z,3.67
2019-06-10T00:09:41.289Z,4.70
2019-06-10T00:12:09.448Z,4.10
2019-06-10T00:14:36.612Z,4.73
2019-06-10T00:17:04.669Z,4.20
2019-06-10T00:19:31.869Z,4.07
2019-06-10T00:21:59.889Z,5.00
2019-06-10T00:24:27.039Z,4.10
2019-06-10T00:26:53.708Z,5.00
2019-06-10T00:29:22.204Z,4.40
2019-06-10T00:31:50.814Z,3.63
2019-06-10T00:34:17.457Z,5.30
2019-06-10T00:36:44.080Z,5.10
2019-06-10T00:39:13.325Z,4.40
2019-06-10T00:41:39.237Z,4.23
2019-06-10T00:44:06.972Z,4.20
2019-06-10T00:46:34.650Z,4.80
2019-06-10T00:49:03.992Z,5.47
2019-06-10T00:51:31.395Z,4.70
2019-06-10T00:53:58.231Z,5.90
2019-06-10T00:56:24.846Z,4.53
2019-06-10T00:58:51.587Z,4.70
2019-06-10T01:01:18.249Z,4.20
2019-06-10T01:03:45.156Z,5.43
2019-06-10T01:06:14.922Z,5.13
2019-06-10T01:08:40.632Z,4.47
2019-06-10T01:11:16.528Z,4.57
2019-06-10T01:13:35.856Z,3.83
2019-06-10T01:16:03.432Z,3.80
2019-06-10T01:18:37.541Z,3.77
2019-06-10T01:21:01.792Z,3.90
2019-06-10T01:23:27.938Z,3.83
2019-06-10T01:25:54.571Z,4.23
2019-06-10T01:28:22.115Z,4.17
2019-06-10T01:30:51.546Z,4.20
2019-06-10T01:33:17.683Z,3.93
2019-06-10T01:35:44.457Z,4.13
2019-06-10T01:38:13.462Z,4.80
2019-06-10T01:40:41.867Z,4.63
2019-06-10T01:43:08.320Z,3.40
2019-06-10T01:45:34.991Z,3.87
2019-06-10T01:48:01.639Z,3.57
2019-06-10T01:50:28.317Z,4.07
2019-06-10T01:52:55.062Z,4.00
2019-06-10T01:55:22.029Z,3.87
2019-06-10T01:57:48.842Z,3.33
2019-06-10T02:00:22.669Z,3.57
2019-06-10T02:02:46.190Z,4.00
2019-06-10T02:05:14.948Z,3.80
2019-06-10T02:07:42.845Z,4.50
2019-06-10T02:10:13.774Z,4.33
2019-06-10T02:12:41.439Z,4.10
2019-06-10T02:15:08.080Z,3.90
2019-06-10T02:17:35.784Z,3.60
2019-06-10T02:20:04.453Z,4.50
2019-06-10T02:22:31.855Z,4.30
2019-06-10T02:25:01.242Z,4.80
2019-06-10T02:27:28.353Z,3.80
2019-06-10T02:29:55.031Z,5.60
2019-06-10T02:32:31.299Z,5.47
2019-06-10T02:35:03.515Z,4.20
2019-06-10T02:37:22.521Z,3.37
2019-06-10T02:39:48.194Z,4.20
2019-06-10T02:42:28.876Z,3.60
2019-06-10T02:44:53.894Z,4.03
2019-06-10T02:47:23.792Z,4.83
2019-06-10T02:50:01.405Z,3.90
2019-06-10T02:52:20.730Z,3.80
2019-06-10T02:54:47.691Z,6.47
2019-06-10T02:57:18.238Z,5.60
2019-06-10T02:59:45.640Z,6.80
2019-06-10T03:02:13.544Z,6.43
2019-06-10T03:04:43.340Z,6.17
2019-06-10T03:07:13.612Z,6.30
2019-06-10T03:09:39.299Z,6.00
2019-06-10T03:12:07.437Z,5.50
2019-06-10T03:14:34.963Z,6.00
2019-06-10T03:17:05.104Z,6.13
2019-06-10T03:19:45.831Z,6.50
2019-06-10T03:22:02.795Z,5.90
2019-06-10T03:24:29.774Z,6.03
2019-06-10T03:26:57.457Z,5.80
2019-06-10T03:29:26.490Z,7.20
2019-06-10T03:31:55.154Z,5.87
2019-06-10T03:34:31.113Z,6.43
2019-06-10T03:36:53.375Z,7.90
2019-06-10T03:39:20.638Z,6.73
2019-06-10T03:41:48.033Z,6.70
2019-06-10T03:44:14.627Z,7.17
2019-06-10T03:46:43.106Z,7.03
2019-06-10T03:49:09.834Z,5.70
2019-06-10T03:51:36.799Z,6.30
2019-06-10T03:54:03.653Z,6.90
2019-06-10T03:56:32.282Z,7.50
2019-06-10T03:58:59.090Z,6.50
2019-06-10T04:01:28.609Z,7.27
2019-06-10T04:03:55.857Z,7.83
2019-06-10T04:06:24.652Z,7.97
2019-06-10T04:08:52.264Z,8.50
2019-06-10T04:11:19.532Z,8.60
2019-06-10T04:13:46.501Z,8.43
2019-06-10T04:16:13.311Z,9.40
2019-06-10T04:18:39.998Z,9.20
2019-06-10T04:21:06.623Z,8.20
2019-06-10T04:23:33.590Z,8.53
2019-06-10T04:26:02.258Z,8.20
2019-06-10T04:28:28.875Z,8.53
2019-06-10T04:30:55.502Z,8.57
2019-06-10T04:33:23.268Z,8.30
2019-06-10T04:35:52.013Z,8.27
2019-06-10T04:38:18.854Z,9.10
2019-06-10T04:40:45.591Z,8.67
2019-06-10T04:43:12.466Z,9.43
2019-06-10T04:45:39.507Z,9.67
2019-06-10T04:48:06.132Z,10.93
2019-06-10T04:50:41.950Z,12.43
2019-06-10T04:53:02.310Z,10.60
2019-06-10T04:55:29.333Z,9.50
2019-06-10T04:57:56.133Z,10.27
2019-06-10T05:00:24.081Z,10.23
2019-06-10T05:02:52.216Z,9.20
2019-06-10T05:05:19.415Z,9.57
2019-06-10T05:07:46.015Z,10.03
2019-06-10T05:10:12.719Z,10.80
2019-06-10T05:12:39.324Z,9.50
2019-06-10T05:15:06.924Z,9.37
2019-06-10T05:17:34.479Z,9.70
2019-06-10T05:20:02.601Z,10.23
2019-06-10T05:22:30.594Z,9.60
2019-06-10T05:24:57.907Z,9.57
2019-06-10T05:27:25.729Z,10.03
2019-06-10T05:29:53.029Z,10.00
2019-06-10T05:32:20.795Z,9.67
2019-06-10T05:34:48.276Z,9.80
2019-06-10T05:37:14.898Z,10.80
2019-06-10T05:39:42.409Z,9.53
2019-06-10T05:42:09.225Z,8.87
2019-06-10T05:44:36.163Z,8.77
2019-06-10T05:47:03.809Z,9.77
2019-06-10T05:49:33.778Z,9.13
2019-06-10T05:51:59.361Z,8.80
2019-06-10T05:54:27.503Z,8.80
2019-06-10T05:56:54.213Z,8.87
2019-06-10T05:59:23.031Z,8.63
2019-06-10T06:01:49.388Z,7.80
2019-06-10T06:04:16.037Z,8.07
2019-06-10T06:06:45.121Z,8.00
2019-06-10T06:09:12.939Z,8.43
2019-06-10T06:11:39.797Z,7.70
2019-06-10T06:14:06.465Z,8.90
2019-06-10T06:16:36.034Z,8.70
2019-06-10T06:19:03.301Z,8.27
2019-06-10T06:21:36.049Z,7.70
2019-06-10T06:23:58.548Z,7.67
2019-06-10T06:26:26.332Z,7.50
2019-06-10T06:28:53.671Z,7.17
2019-06-10T06:31:20.435Z,7.83
2019-06-10T06:33:47.036Z,7.10
2019-06-10T06:36:13.628Z,7.00
2019-06-10T06:38:40.523Z,6.60
2019-06-10T06:41:07.994Z,6.17
2019-06-10T06:43:39.971Z,6.37
2019-06-10T06:46:03.251Z,7.10
2019-06-10T06:48:30.044Z,5.80
2019-06-10T06:51:04.382Z,5.70
2019-06-10T06:53:33.321Z,6.03
2019-06-10T06:55:56.005Z,6.40
2019-06-10T06:58:23.167Z,6.70
2019-06-10T07:01:01.353Z,7.30
2019-06-10T07:03:18.657Z,6.70
2019-06-10T07:05:45.552Z,7.37
2019-06-10T07:08:13.149Z,7.30
2019-06-10T07:10:43.411Z,7.63
2019-06-10T07:13:09.791Z,6.40
2019-06-10T07:15:40.951Z,7.37
2019-06-10T07:18:08.275Z,7.07
2019-06-10T07:20:37.601Z,6.83
2019-06-10T07:23:03.513Z,6.47
2019-06-10T07:25:34.153Z,6.10
2019-06-10T07:27:58.608Z,7.20
2019-06-10T07:30:25.253Z,7.83
2019-06-10T07:32:52.809Z,7.20
2019-06-10T07:35:22.058Z,7.90
2019-06-10T07:37:48.132Z,11.27
2019-06-10T07:40:16.816Z,6.97
2019-06-10T07:42:45.124Z,9.83
2019-06-10T07:45:13.228Z,7.20
2019-06-10T07:47:41.102Z,6.43
2019-06-10T07:50:08.691Z,8.97
2019-06-10T07:52:35.988Z,9.67
2019-06-10T07:55:04.105Z,7.03
2019-06-10T07:57:33.178Z,7.20
2019-06-10T07:59:59.554Z,6.50
2019-06-10T08:02:26.197Z,8.70
2019-06-10T08:04:54.159Z,6.50
2019-06-10T08:07:22.532Z,7.83
2019-06-10T08:09:49.389Z,10.70
2019-06-10T08:12:16.023Z,8.40
2019-06-10T08:14:44.331Z,14.33
2019-06-10T08:17:12.929Z,6.90
2019-06-10T08:19:43.090Z,6.93
2019-06-10T08:22:08.199Z,6.87
2019-06-10T08:24:35.332Z,6.60
2019-06-10T08:27:02.705Z,6.47
2019-06-10T08:29:29.562Z,6.73
2019-06-10T08:31:56.625Z,6.50
2019-06-10T08:34:23.397Z,8.10
2019-06-10T08:36:50.692Z,6.83
2019-06-10T08:39:18.549Z,6.43
2019-06-10T08:41:47.783Z,6.67
2019-06-10T08:44:13.664Z,6.20
2019-06-10T08:46:43.756Z,6.43
2019-06-10T08:49:12.593Z,6.20
2019-06-10T08:51:39.645Z,5.93
2019-06-10T08:54:07.094Z,6.60
2019-06-10T08:56:33.815Z,7.37
2019-06-10T08:59:03.072Z,7.23
2019-06-10T09:01:29.072Z,7.30
2019-06-10T09:03:55.689Z,6.60
2019-06-10T09:06:23.189Z,6.83
2019-06-10T09:08:53.874Z,7.07
2019-06-10T09:11:20.458Z,8.10
2019-06-10T09:13:48.847Z,8.70
2019-06-10T09:16:19.337Z,8.20
2019-06-10T09:18:48.110Z,10.30
2019-06-10T09:21:13.573Z,8.03
2019-06-10T09:23:41.124Z,8.70
2019-06-10T09:26:08.902Z,7.40
2019-06-10T09:28:36.105Z,7.30
2019-06-10T09:31:04.045Z,7.20
2019-06-10T09:33:33.117Z,7.23
2019-06-10T09:36:00.293Z,7.40
2019-06-10T09:38:26.894Z,7.47
2019-06-10T09:41:01.234Z,9.00
2019-06-10T09:43:22.663Z,9.87
2019-06-10T09:45:51.375Z,9.33
2019-06-10T09:48:22.899Z,8.70
2019-06-10T09:50:53.584Z,9.80
2019-06-10T09:53:30.161Z,10.13
2019-06-10T09:55:50.970Z,7.50
2019-06-10T09:58:16.740Z,11.00
2019-06-10T10:00:49.275Z,7.67
2019-06-10T10:03:14.327Z,8.97
2019-06-10T10:05:52.581Z,10.00
2019-06-10T10:08:12.524Z,9.00
2019-06-10T10:10:38.870Z,10.20
2019-06-10T10:13:06.568Z,7.77
2019-06-10T10:15:34.655Z,7.20
2019-06-10T10:18:02.473Z,12.10
2019-06-10T10:20:29.576Z,7.27
2019-06-10T10:22:56.178Z,6.83
2019-06-10T10:25:23.595Z,6.50
2019-06-10T10:27:53.350Z,7.10
2019-06-10T10:30:25.762Z,8.30
2019-06-10T10:32:53.981Z,8.77
2019-06-10T10:35:21.445Z,6.80
2019-06-10T10:37:48.534Z,8.93
2019-06-10T10:40:15.542Z,7.60
2019-06-10T10:42:48.156Z,9.57
2019-06-10T10:45:13.067Z,7.70
2019-06-10T10:47:39.469Z,7.80
2019-06-10T10:50:06.532Z,16.07
2019-06-10T10:52:33.259Z,10.90
2019-06-10T10:55:04.205Z,12.40
2019-06-10T10:57:28.537Z,11.30
2019-06-10T10:59:56.215Z,8.67
2019-06-10T11:02:23.172Z,13.83
2019-06-10T11:04:49.794Z,8.83
2019-06-10T11:07:16.488Z,12.70
2019-06-10T11:09:44.808Z,12.73
2019-06-10T11:12:12.676Z,10.43
2019-06-10T11:14:39.508Z,8.90
2019-06-10T11:17:06.157Z,7.50
2019-06-10T11:19:33.042Z,8.17
2019-06-10T11:22:02.781Z,8.00
2019-06-10T11:24:37.604Z,9.43
2019-06-10T11:26:58.535Z,18.10
2019-06-10T11:29:25.361Z,13.83
2019-06-10T11:31:55.152Z,7.93
2019-06-10T11:34:20.498Z,9.27
2019-06-10T11:36:47.999Z,8.80
2019-06-10T11:39:14.903Z,8.73
2019-06-10T11:41:43.639Z,13.07
2019-06-10T11:44:10.333Z,15.83
2019-06-10T11:46:36.916Z,10.70
2019-06-10T11:49:04.045Z,8.43
2019-06-10T11:51:32.347Z,8.87
2019-06-10T11:53:59.336Z,8.50
2019-06-10T11:56:26.075Z,8.87
2019-06-10T11:58:55.118Z,9.80
2019-06-10T12:01:22.925Z,9.03
2019-06-10T12:03:51.151Z,11.87
2019-06-10T12:06:18.463Z,9.00
2019-06-10T12:08:45.497Z,10.07
2019-06-10T12:11:12.666Z,9.40
2019-06-10T12:13:42.902Z,16.57
2019-06-10T12:18:38.717Z,16.00
2019-06-10T12:21:05.629Z,10.90
2019-06-10T12:23:33.705Z,10.60
2019-06-10T12:26:03.849Z,11.20
2019-06-10T12:28:32.477Z,32.30
2019-06-10T12:31:01.205Z,11.10
2019-06-10T12:33:27.124Z,17.53
2019-06-10T12:35:57.794Z,9.10
2019-06-10T12:38:22.918Z,11.07
2019-06-10T12:40:49.865Z,11.20
2019-06-10T12:43:16.478Z,8.83
2019-06-10T12:45:43.857Z,9.00
2019-06-10T12:48:13.159Z,10.40
2019-06-10T12:50:39.139Z,9.80
2019-06-10T12:53:07.273Z,8.90
2019-06-10T12:55:42.268Z,9.10
2019-06-10T12:58:05.576Z,9.47
2019-06-10T13:00:42.381Z,8.63
2019-06-10T13:03:09.431Z,18.87
2019-06-10T13:05:36.707Z,14.37
2019-06-10T13:08:05.950Z,19.70
2019-06-10T13:10:39.560Z,15.70
2019-06-10T13:13:08.873Z,11.20
2019-06-10T13:15:35.097Z,11.93
2019-06-10T13:18:05.781Z,8.83
2019-06-10T13:20:32.176Z,7.73
2019-06-10T13:22:58.829Z,7.60
2019-06-10T13:25:25.466Z,12.43
2019-06-10T13:27:52.601Z,7.47
2019-06-10T13:30:19.379Z,8.63
2019-06-10T13:32:46.047Z,8.63
2019-06-10T13:35:12.854Z,8.87
2019-06-10T13:37:39.628Z,14.00
2019-06-10T13:40:08.570Z,13.90
2019-06-10T13:42:36.900Z,9.70
2019-06-10T13:45:06.942Z,8.60
2019-06-10T13:47:33.167Z,8.10
2019-06-10T13:50:01.591Z,9.13
2019-06-10T13:52:28.676Z,20.87
2019-06-10T13:54:55.321Z,13.03
2019-06-10T13:57:22.982Z,11.73
2019-06-10T13:59:51.891Z,10.20
2019-06-10T14:02:18.863Z,9.67
2019-06-10T14:04:45.521Z,11.27
2019-06-10T14:07:17.168Z,11.97
2019-06-10T14:09:40.755Z,9.60
2019-06-10T14:12:08.034Z,11.00
2019-06-10T14:14:34.879Z,9.30
2019-06-10T14:17:01.896Z,13.30
2019-06-10T14:19:29.882Z,11.53
2019-06-10T14:21:57.914Z,10.43
2019-06-10T14:24:24.867Z,8.77
2019-06-10T14:26:53.157Z,10.00
2019-06-10T14:29:19.933Z,10.80
2019-06-10T14:31:47.806Z,12.97
2019-06-10T14:34:18.018Z,14.80
2019-06-10T14:36:43.565Z,11.17
2019-06-10T14:39:12.732Z,10.90
2019-06-10T14:41:38.865Z,11.83
2019-06-10T14:44:06.814Z,17.43
2019-06-10T14:46:33.781Z,13.07
2019-06-10T14:49:02.372Z,11.57
2019-06-10T14:51:29.035Z,11.63
2019-06-10T14:53:55.772Z,11.50
2019-06-10T14:56:23.410Z,10.77
2019-06-10T14:58:52.877Z,12.77
2019-06-10T15:01:25.056Z,14.27
2019-06-10T15:03:47.795Z,19.53
2019-06-10T15:06:15.619Z,20.40
2019-06-10T15:08:42.875Z,12.83
2019-06-10T15:11:09.731Z,14.73
2019-06-10T15:13:36.359Z,17.40
2019-06-10T15:16:04.427Z,15.93
2019-06-10T15:18:33.006Z,11.30
2019-06-10T15:21:02.502Z,12.03
2019-06-10T15:23:28.347Z,11.83
2019-06-10T15:25:57.170Z,32.60
2019-06-10T15:28:23.848Z,11.93
2019-06-10T15:30:52.480Z,12.60
2019-06-10T15:33:19.691Z,12.80
2019-06-10T15:35:46.766Z,14.47
2019-06-10T15:38:15.693Z,11.40
2019-06-10T15:40:43.396Z,10.47
2019-06-10T15:43:11.646Z,11.60
2019-06-10T15:45:38.520Z,9.83
2019-06-10T15:48:05.154Z,18.77
2019-06-10T15:50:32.373Z,11.70
2019-06-10T15:52:59.464Z,10.10
2019-06-10T15:55:48.658Z,11.70
2019-06-10T15:57:54.614Z,12.03
2019-06-10T16:00:28.097Z,11.60
2019-06-10T16:02:50.428Z,11.80
2019-06-10T16:05:18.725Z,11.53
2019-06-10T16:07:45.877Z,10.90
2019-06-10T16:10:15.685Z,12.47
2019-06-10T16:12:43.751Z,12.27
2019-06-10T16:15:13.368Z,13.07
2019-06-10T16:17:43.035Z,13.50
2019-06-10T16:20:09.412Z,12.80
2019-06-10T16:22:36.053Z,11.70
2019-06-10T16:25:03.439Z,29.57
2019-06-10T16:27:46.856Z,12.67
2019-06-10T16:29:59.015Z,11.63
2019-06-10T16:32:26.505Z,14.00
2019-06-10T16:34:53.345Z,20.37
2019-06-10T16:37:23.467Z,14.40
2019-06-10T16:39:48.672Z,14.50
2019-06-10T16:42:15.577Z,13.87
2019-06-10T16:44:42.404Z,14.13
2019-06-10T16:47:09.035Z,14.67
2019-06-10T16:49:35.739Z,17.70
2019-06-10T16:52:03.034Z,15.40
2019-06-10T16:54:29.972Z,14.07
2019-06-10T16:56:56.768Z,13.00
2019-06-10T16:59:25.615Z,12.43
2019-06-10T17:01:53.160Z,16.20
2019-06-10T17:04:21.716Z,13.27
2019-06-10T17:06:48.664Z,14.17
2019-06-10T17:09:15.276Z,14.10
2019-06-10T17:11:42.608Z,14.50
2019-06-10T17:14:09.518Z,13.80
2019-06-10T17:16:36.102Z,20.73
2019-06-10T17:19:02.974Z,20.30
2019-06-10T17:21:33.936Z,15.50
2019-06-10T17:23:58.685Z,14.00
2019-06-10T17:26:30.627Z,16.03
2019-06-10T17:28:53.941Z,14.30
2019-06-10T17:31:25.725Z,14.03
2019-06-10T17:33:49.224Z,14.63
2019-06-10T17:36:15.871Z,15.00
2019-06-10T17:38:42.996Z,16.90
2019-06-10T17:41:10.329Z,14.40
2019-06-10T17:43:36.967Z,14.63
2019-06-10T17:46:03.674Z,15.20
2019-06-10T17:48:31.367Z,15.00
2019-06-10T17:50:58.913Z,16.63
2019-06-10T17:53:26.169Z,14.23
2019-06-10T17:55:52.980Z,15.10
2019-06-10T17:58:37.257Z,15.70
2019-06-10T18:00:48.445Z,14.50
2019-06-10T18:03:15.137Z,15.90
2019-06-10T18:05:42.641Z,16.90
2019-06-10T18:08:09.420Z,17.10
2019-06-10T18:10:36.198Z,16.77
2019-06-10T18:13:13.134Z,16.17
2019-06-10T18:15:35.387Z,17.30
2019-06-10T18:18:03.306Z,15.70
2019-06-10T18:20:31.299Z,17.13
2019-06-10T18:22:58.205Z,14.80
2019-06-10T18:25:25.032Z,16.47
2019-06-10T18:27:52.308Z,15.30
2019-06-10T18:30:22.087Z,16.97
2019-06-10T18:32:48.514Z,19.57
2019-06-10T18:35:16.652Z,17.80
2019-06-10T18:37:43.344Z,17.97
2019-06-10T18:40:10.756Z,17.57
2019-06-10T18:42:38.952Z,18.70
2019-06-10T18:45:07.698Z,15.73
2019-06-10T18:47:35.712Z,15.20
2019-06-10T18:50:06.093Z,15.43
2019-06-10T18:52:32.719Z,19.03
2019-06-10T18:54:59.364Z,22.20
2019-06-10T18:57:26.273Z,24.30
2019-06-10T18:59:52.917Z,20.03
2019-06-10T19:02:19.919Z,21.30
2019-06-10T19:04:46.692Z,16.80
2019-06-10T19:07:13.476Z,17.47
2019-06-10T19:09:46.990Z,17.60
2019-06-10T19:12:08.656Z,17.47
2019-06-10T19:14:36.731Z,17.07
2019-06-10T19:17:03.762Z,36.73
2019-06-10T19:19:30.411Z,18.60
2019-06-10T19:22:05.204Z,16.63
2019-06-10T19:24:25.551Z,16.60
2019-06-10T19:26:52.739Z,17.17
2019-06-10T19:29:33.156Z,17.40
2019-06-10T19:31:48.104Z,17.23
2019-06-10T19:34:14.815Z,28.10
2019-06-10T19:36:41.851Z,34.03
2019-06-10T19:39:08.782Z,19.20
2019-06-10T19:41:38.130Z,21.33
2019-06-10T19:44:04.325Z,21.10
2019-06-10T19:46:32.834Z,18.50
2019-06-10T19:49:03.215Z,19.10
2019-06-10T19:51:27.971Z,20.73
2019-06-10T19:53:54.555Z,20.90
2019-06-10T19:56:24.214Z,19.20
2019-06-10T19:58:49.927Z,21.87
2019-06-10T20:01:16.548Z,19.23
2019-06-10T20:03:46.436Z,19.00
2019-06-10T20:06:13.016Z,19.30
2019-06-10T20:08:40.037Z,22.13
2019-06-10T20:11:06.785Z,20.60
2019-06-10T20:13:34.418Z,18.97
2019-06-10T20:16:02.958Z,20.57
2019-06-10T20:18:29.681Z,22.97
2019-06-10T20:20:56.268Z,20.57
2019-06-10T20:23:22.887Z,19.23
2019-06-10T20:25:49.783Z,20.13
2019-06-10T20:28:16.417Z,20.57
2019-06-10T20:30:45.815Z,20.97
2019-06-10T20:33:13.919Z,19.37
2019-06-10T20:35:42.065Z,22.40
2019-06-10T20:38:08.893Z,19.60
2019-06-10T20:40:35.730Z,22.70
2019-06-10T20:43:03.207Z,19.97
2019-06-10T20:45:32.913Z,23.40
2019-06-10T20:47:59.139Z,21.93
2019-06-10T20:50:25.783Z,22.27
2019-06-10T20:52:52.562Z,21.50
2019-06-10T20:55:19.393Z,22.50
2019-06-10T20:57:55.861Z,21.40
2019-06-10T21:00:33.426Z,23.40
2019-06-10T21:02:59.299Z,22.20
2019-06-10T21:05:26.212Z,21.97
2019-06-10T21:07:55.625Z,21.60
2019-06-10T21:10:33.807Z,23.50
2019-06-10T21:13:02.912Z,21.90
2019-06-10T21:15:29.517Z,22.27
2019-06-10T21:17:56.145Z,23.90
2019-06-10T21:20:22.970Z,27.73
2019-06-10T21:22:51.426Z,26.10
2019-06-10T21:25:18.448Z,27.63
2019-06-10T21:27:46.332Z,25.00
2019-06-10T21:30:14.004Z,27.10
2019-06-10T21:32:41.725Z,26.80
2019-06-10T21:35:09.090Z,25.30
2019-06-10T21:37:35.676Z,27.70
2019-06-10T21:40:03.496Z,26.80
2019-06-10T21:42:32.624Z,28.00
2019-06-10T21:44:58.813Z,28.63
2019-06-10T21:47:25.701Z,29.10
2019-06-10T21:49:53.538Z,27.53
2019-06-10T21:52:20.849Z,30.33
2019-06-10T21:54:48.568Z,29.37
2019-06-10T21:57:15.320Z,28.17
2019-06-10T21:59:42.910Z,29.00
2019-06-10T22:02:12.583Z,28.50
2019-06-10T22:04:39.014Z,30.00
2019-06-10T22:07:05.741Z,30.07
2019-06-10T22:09:32.361Z,29.23
2019-06-10T22:11:58.985Z,30.80
2019-06-10T22:14:25.648Z,32.10
2019-06-10T22:16:53.330Z,31.43
2019-06-10T22:19:23.124Z,32.30
2019-06-10T22:21:51.186Z,33.20
2019-06-10T22:24:18.169Z,36.60
2019-06-10T22:26:44.840Z,33.87
2019-06-10T22:29:12.645Z,36.70
2019-06-10T22:31:39.457Z,38.17
2019-06-10T22:34:06.083Z,35.10
2019-06-10T22:36:32.752Z,35.10
2019-06-10T22:38:59.593Z,33.77
2019-06-10T22:41:26.855Z,36.30
2019-06-10T22:43:55.879Z,38.73
2019-06-10T22:46:23.147Z,43.87
2019-06-10T22:48:51.054Z,38.90
2019-06-10T22:51:17.778Z,37.60
2019-06-10T22:53:44.418Z,36.90
2019-06-10T22:56:12.353Z,39.13
2019-06-10T22:58:39.123Z,37.40
2019-06-10T23:01:05.722Z,35.80
2019-06-10T23:03:32.505Z,36.57
2019-06-10T23:05:59.621Z,36.20
2019-06-10T23:08:27.284Z,37.23
2019-06-10T23:10:56.592Z,42.73
2019-06-10T23:13:23.534Z,50.00
2019-06-10T23:15:53.451Z,37.80
2019-06-10T23:18:18.698Z,38.77
2019-06-10T23:20:45.292Z,40.50
2019-06-10T23:23:12.621Z,38.23
2019-06-10T23:25:39.560Z,36.83
2019-06-10T23:28:06.178Z,36.53
2019-06-10T23:30:33.097Z,37.47
2019-06-10T23:33:00.843Z,40.63
2019-06-10T23:35:27.780Z,40.80
2019-06-10T23:37:56.909Z,42.60
2019-06-10T23:40:23.544Z,42.80
2019-06-10T23:42:50.827Z,44.50
2019-06-10T23:45:17.760Z,44.70
2019-06-10T23:47:45.004Z,41.40
2019-06-10T23:50:12.899Z,43.60
2019-06-10T23:52:39.686Z,43.43
2019-06-10T23:55:06.619Z,43.90
2019-06-10T23:57:33.276Z,46.07
